sensor_id;sensor_type;location;lat;lon;timestamp;temperature;humidity
20315;DHT22;10315;50.958;13.080;2024-03-08T00:09:36;-1.00;99.90
20315;DHT22;10315;50.958;13.080;2024-03-08T00:19:37;-1.20;99.90
20315;DHT22;10315;50.958;13.080;2024-03-08T00:29:41;-1.20;99.90
20315;DHT22;10315;50.958;13.080;2024-03-08T00:39:42;-1.30;99.90
20315;DHT22;10315;50.958;13.080;2024-03-08T00:49:45;-1.40;99.90
20315;DHT22;10315;50.958;13.080;2024-03-08T00:59:47;-1.50;99.90
20315;DHT22;10315;50.958;13.080;2024-03-08T01:09:50;-1.50;99.90
20315;DHT22;10315;50.958;13.080;2024-03-08T01:19:52;-1.50;99.90
20315;DHT22;10315;50.958;13.080;2024-03-08T01:29:55;-1.60;99.90
20315;DHT22;10315;50.958;13.080;2024-03-08T01:39:57;-1.60;99.90
20315;DHT22;10315;50.958;13.080;2024-03-08T01:50:03;-1.50;99.90
20315;DHT22;10315;50.958;13.080;2024-03-08T02:00:06;-1.70;99.90
20315;DHT22;10315;50.958;13.080;2024-03-08T02:10:11;-1.80;99.90
20315;DHT22;10315;50.958;13.080;2024-03-08T02:20:13;-1.90;99.90
20315;DHT22;10315;50.958;13.080;2024-03-08T02:30:16;-2.00;99.90
20315;DHT22;10315;50.958;13.080;2024-03-08T02:40:18;-2.00;99.90
20315;DHT22;10315;50.958;13.080;2024-03-08T02:50:21;-1.90;99.90
20315;DHT22;10315;50.958;13.080;2024-03-08T03:00:23;-1.80;99.90
20315;DHT22;10315;50.958;13.080;2024-03-08T03:10:26;-2.00;99.90
20315;DHT22;10315;50.958;13.080;2024-03-08T03:20:27;-2.10;99.90
20315;DHT22;10315;50.958;13.080;2024-03-08T03:30:34;-2.20;99.90
20315;DHT22;10315;50.958;13.080;2024-03-08T03:40:35;-2.10;99.90
20315;DHT22;10315;50.958;13.080;2024-03-08T03:50:38;-2.00;99.90
20315;DHT22;10315;50.958;13.080;2024-03-08T04:00:40;-1.90;99.90
20315;DHT22;10315;50.958;13.080;2024-03-08T04:10:43;-1.80;99.90
20315;DHT22;10315;50.958;13.080;2024-03-08T04:20:44;-1.80;99.90
20315;DHT22;10315;50.958;13.080;2024-03-08T04:30:48;-1.80;99.90
20315;DHT22;10315;50.958;13.080;2024-03-08T04:40:51;-2.00;99.90
20315;DHT22;10315;50.958;13.080;2024-03-08T04:50:53;-2.60;99.90
20315;DHT22;10315;50.958;13.080;2024-03-08T05:00:56;-3.10;99.90
20315;DHT22;10315;50.958;13.080;2024-03-08T05:10:58;-3.30;99.90
20315;DHT22;10315;50.958;13.080;2024-03-08T05:21:03;-3.10;99.90
20315;DHT22;10315;50.958;13.080;2024-03-08T05:31:06;-3.40;99.90
20315;DHT22;10315;50.958;13.080;2024-03-08T05:41:08;-3.40;99.90
20315;DHT22;10315;50.958;13.080;2024-03-08T05:51:11;-3.20;99.90
20315;DHT22;10315;50.958;13.080;2024-03-08T06:01:13;-2.70;99.90
20315;DHT22;10315;50.958;13.080;2024-03-08T06:11:17;-2.30;99.90
20315;DHT22;10315;50.958;13.080;2024-03-08T06:21:18;-2.00;99.90
20315;DHT22;10315;50.958;13.080;2024-03-08T06:31:21;-1.80;99.90
20315;DHT22;10315;50.958;13.080;2024-03-08T06:41:23;-1.00;99.90
20315;DHT22;10315;50.958;13.080;2024-03-08T06:51:26;0.40;99.90
20315;DHT22;10315;50.958;13.080;2024-03-08T07:01:27;2.00;99.90
20315;DHT22;10315;50.958;13.080;2024-03-08T07:11:33;4.20;99.90
20315;DHT22;10315;50.958;13.080;2024-03-08T07:21:35;6.70;99.90
20315;DHT22;10315;50.958;13.080;2024-03-08T07:31:37;10.20;99.90
20315;DHT22;10315;50.958;13.080;2024-03-08T07:41:50;14.10;99.90
20315;DHT22;10315;50.958;13.080;2024-03-08T07:51:54;16.40;91.60
20315;DHT22;10315;50.958;13.080;2024-03-08T08:01:55;17.30;90.20
20315;DHT22;10315;50.958;13.080;2024-03-08T08:11:59;17.70;83.70
20315;DHT22;10315;50.958;13.080;2024-03-08T08:22:02;17.80;79.90
20315;DHT22;10315;50.958;13.080;2024-03-08T08:32:05;18.10;79.60
20315;DHT22;10315;50.958;13.080;2024-03-08T08:42:06;19.20;79.50
20315;DHT22;10315;50.958;13.080;2024-03-08T08:52:10;19.20;76.40
20315;DHT22;10315;50.958;13.080;2024-03-08T09:02:12;16.60;76.50
20315;DHT22;10315;50.958;13.080;2024-03-08T09:12:18;12.60;85.20
20315;DHT22;10315;50.958;13.080;2024-03-08T09:22:19;9.00;95.20
20315;DHT22;10315;50.958;13.080;2024-03-08T09:32:22;8.70;97.40
20315;DHT22;10315;50.958;13.080;2024-03-08T09:42:25;8.30;99.90
20315;DHT22;10315;50.958;13.080;2024-03-08T09:52:28;8.30;99.90
20315;DHT22;10315;50.958;13.080;2024-03-08T10:02:31;8.20;99.90
20315;DHT22;10315;50.958;13.080;2024-03-08T10:12:33;8.00;99.90
20315;DHT22;10315;50.958;13.080;2024-03-08T10:22:35;8.10;99.90
20315;DHT22;10315;50.958;13.080;2024-03-08T10:32:39;8.00;99.90
20315;DHT22;10315;50.958;13.080;2024-03-08T10:42:44;8.10;99.90
20315;DHT22;10315;50.958;13.080;2024-03-08T10:52:51;8.20;99.90
20315;DHT22;10315;50.958;13.080;2024-03-08T11:02:53;8.10;99.90
20315;DHT22;10315;50.958;13.080;2024-03-08T11:12:56;8.50;99.90
20315;DHT22;10315;50.958;13.080;2024-03-08T11:22:59;8.50;99.90
20315;DHT22;10315;50.958;13.080;2024-03-08T11:33:03;9.10;99.90
20315;DHT22;10315;50.958;13.080;2024-03-08T11:43:04;9.20;99.90
20315;DHT22;10315;50.958;13.080;2024-03-08T11:53:08;9.30;99.90
20315;DHT22;10315;50.958;13.080;2024-03-08T12:03:10;9.40;99.90
20315;DHT22;10315;50.958;13.080;2024-03-08T12:13:13;9.60;99.90
20315;DHT22;10315;50.958;13.080;2024-03-08T12:23:15;9.80;99.90
20315;DHT22;10315;50.958;13.080;2024-03-08T12:33:18;9.80;99.90
20315;DHT22;10315;50.958;13.080;2024-03-08T12:43:19;9.90;99.90
20315;DHT22;10315;50.958;13.080;2024-03-08T12:53:22;9.90;99.90
20315;DHT22;10315;50.958;13.080;2024-03-08T13:03:25;9.90;99.90
20315;DHT22;10315;50.958;13.080;2024-03-08T13:13:29;9.90;99.90
20315;DHT22;10315;50.958;13.080;2024-03-08T13:23:30;10.30;99.90
20315;DHT22;10315;50.958;13.080;2024-03-08T13:33:33;9.90;99.90
20315;DHT22;10315;50.958;13.080;2024-03-08T13:43:37;10.00;99.90
20315;DHT22;10315;50.958;13.080;2024-03-08T13:53:41;10.10;99.90
20315;DHT22;10315;50.958;13.080;2024-03-08T14:03:43;9.60;99.90
20315;DHT22;10315;50.958;13.080;2024-03-08T14:13:45;9.70;99.90
20315;DHT22;10315;50.958;13.080;2024-03-08T14:23:47;10.00;99.90
20315;DHT22;10315;50.958;13.080;2024-03-08T14:33:52;9.90;99.90
20315;DHT22;10315;50.958;13.080;2024-03-08T14:43:53;9.60;99.90
20315;DHT22;10315;50.958;13.080;2024-03-08T14:53:56;9.50;99.90
20315;DHT22;10315;50.958;13.080;2024-03-08T15:03:57;9.40;99.90
20315;DHT22;10315;50.958;13.080;2024-03-08T15:14:04;9.10;99.90
20315;DHT22;10315;50.958;13.080;2024-03-08T15:24:10;9.00;99.90
20315;DHT22;10315;50.958;13.080;2024-03-08T15:34:16;8.70;99.90
20315;DHT22;10315;50.958;13.080;2024-03-08T15:44:21;8.30;99.90
20315;DHT22;10315;50.958;13.080;2024-03-08T15:54:24;8.10;99.90
20315;DHT22;10315;50.958;13.080;2024-03-08T16:04:26;7.90;99.90
20315;DHT22;10315;50.958;13.080;2024-03-08T16:14:28;7.70;99.90
20315;DHT22;10315;50.958;13.080;2024-03-08T16:24:31;7.30;99.90
20315;DHT22;10315;50.958;13.080;2024-03-08T16:34:35;6.90;99.90
20315;DHT22;10315;50.958;13.080;2024-03-08T16:44:37;6.60;99.90
20315;DHT22;10315;50.958;13.080;2024-03-08T16:54:40;6.20;99.90
20315;DHT22;10315;50.958;13.080;2024-03-08T17:04:42;5.90;99.90
20315;DHT22;10315;50.958;13.080;2024-03-08T17:14:45;5.50;99.90
20315;DHT22;10315;50.958;13.080;2024-03-08T17:24:47;5.30;99.90
20315;DHT22;10315;50.958;13.080;2024-03-08T17:34:50;5.00;99.90
20315;DHT22;10315;50.958;13.080;2024-03-08T17:44:52;4.60;99.90
20315;DHT22;10315;50.958;13.080;2024-03-08T17:54:55;4.30;99.90
20315;DHT22;10315;50.958;13.080;2024-03-08T18:04:56;4.10;99.90
20315;DHT22;10315;50.958;13.080;2024-03-08T18:14:59;4.00;99.90
20315;DHT22;10315;50.958;13.080;2024-03-08T18:25:01;3.80;99.90
20315;DHT22;10315;50.958;13.080;2024-03-08T18:35:04;3.70;99.90
20315;DHT22;10315;50.958;13.080;2024-03-08T18:45:06;3.60;99.90
20315;DHT22;10315;50.958;13.080;2024-03-08T18:55:12;3.60;99.90
20315;DHT22;10315;50.958;13.080;2024-03-08T19:05:15;3.70;99.90
20315;DHT22;10315;50.958;13.080;2024-03-08T19:15:19;3.70;99.90
20315;DHT22;10315;50.958;13.080;2024-03-08T19:25:21;3.60;99.90
20315;DHT22;10315;50.958;13.080;2024-03-08T19:35:28;3.40;99.90
20315;DHT22;10315;50.958;13.080;2024-03-08T19:45:30;3.00;99.90
20315;DHT22;10315;50.958;13.080;2024-03-08T19:55:34;3.40;99.90
20315;DHT22;10315;50.958;13.080;2024-03-08T20:05:36;4.10;99.90
20315;DHT22;10315;50.958;13.080;2024-03-08T20:15:42;4.00;99.90
20315;DHT22;10315;50.958;13.080;2024-03-08T20:25:46;3.80;99.90
20315;DHT22;10315;50.958;13.080;2024-03-08T20:35:51;3.80;99.90
20315;DHT22;10315;50.958;13.080;2024-03-08T20:45:52;3.80;99.90
20315;DHT22;10315;50.958;13.080;2024-03-08T20:55:55;3.70;99.90
20315;DHT22;10315;50.958;13.080;2024-03-08T21:05:57;3.30;99.90
20315;DHT22;10315;50.958;13.080;2024-03-08T21:16:00;3.00;99.90
20315;DHT22;10315;50.958;13.080;2024-03-08T21:26:01;3.10;99.90
20315;DHT22;10315;50.958;13.080;2024-03-08T21:36:09;2.70;99.90
20315;DHT22;10315;50.958;13.080;2024-03-08T21:46:11;2.80;99.90
20315;DHT22;10315;50.958;13.080;2024-03-08T21:56:17;2.60;99.90
20315;DHT22;10315;50.958;13.080;2024-03-08T22:06:18;2.50;99.90
20315;DHT22;10315;50.958;13.080;2024-03-08T22:16:21;2.60;99.90
20315;DHT22;10315;50.958;13.080;2024-03-08T22:26:23;2.40;99.90
20315;DHT22;10315;50.958;13.080;2024-03-08T22:36:26;2.10;99.90
20315;DHT22;10315;50.958;13.080;2024-03-08T22:46:27;2.20;99.90
20315;DHT22;10315;50.958;13.080;2024-03-08T22:56:30;2.00;99.90
20315;DHT22;10315;50.958;13.080;2024-03-08T23:06:34;1.90;99.90
20315;DHT22;10315;50.958;13.080;2024-03-08T23:16:37;1.70;99.90
20315;DHT22;10315;50.958;13.080;2024-03-08T23:26:39;1.60;99.90
20315;DHT22;10315;50.958;13.080;2024-03-08T23:36:43;1.50;99.90
20315;DHT22;10315;50.958;13.080;2024-03-08T23:46:45;1.60;99.90
20315;DHT22;10315;50.958;13.080;2024-03-08T23:56:49;2.20;99.90
